createdAt,value
2023-01-26T00:01:30.362Z,15.73
2023-01-26T00:04:00.640Z,14.20
2023-01-26T00:06:30.573Z,14.75
2023-01-26T00:09:00.432Z,14.23
2023-01-26T00:11:31.732Z,15.02
2023-01-26T00:14:04.388Z,16.05
2023-01-26T00:16:34.229Z,16.83
2023-01-26T00:19:04.820Z,15.00
2023-01-26T00:21:35.026Z,16.25
2023-01-26T00:24:04.986Z,16.08
2023-01-26T00:26:34.983Z,16.08
2023-01-26T00:29:07.416Z,16.73
2023-01-26T00:31:37.342Z,15.23
2023-01-26T00:34:07.328Z,16.95
2023-01-26T00:36:37.757Z,16.35
2023-01-26T00:39:07.626Z,15.65
2023-01-26T00:41:49.975Z,17.30
2023-01-26T00:44:22.416Z,17.13
2023-01-26T00:46:52.398Z,16.10
2023-01-26T00:49:22.283Z,17.73
2023-01-26T00:51:52.227Z,18.35
2023-01-26T00:54:22.121Z,17.08
2023-01-26T00:56:51.986Z,17.35
2023-01-26T00:59:24.746Z,18.55
2023-01-26T01:01:55.796Z,17.90
2023-01-26T01:04:25.661Z,19.02
2023-01-26T01:06:55.529Z,17.95
2023-01-26T01:09:25.385Z,17.90
2023-01-26T01:11:55.306Z,17.98
2023-01-26T01:14:27.783Z,18.27
2023-01-26T01:16:57.724Z,17.63
2023-01-26T01:19:27.905Z,18.70
2023-01-26T01:21:57.903Z,18.63
2023-01-26T01:24:27.961Z,17.65
2023-01-26T01:26:57.800Z,19.08
2023-01-26T01:29:30.505Z,18.38
2023-01-26T01:32:00.420Z,17.20
2023-01-26T01:34:30.573Z,18.65
2023-01-26T01:37:00.649Z,19.77
2023-01-26T01:39:30.746Z,19.88
2023-01-26T01:42:00.634Z,18.90
2023-01-26T01:44:33.368Z,18.17
2023-01-26T01:47:07.414Z,19.15
2023-01-26T01:49:41.951Z,21.50
2023-01-26T01:52:17.622Z,20.92
2023-01-26T01:54:52.451Z,19.38
2023-01-26T01:57:30.370Z,17.88
2023-01-26T02:00:10.509Z,19.42
2023-01-26T02:02:41.406Z,17.70
2023-01-26T02:05:22.408Z,19.10
2023-01-26T02:07:54.250Z,18.20
2023-01-26T02:10:24.920Z,18.17
2023-01-26T02:13:00.741Z,18.63
2023-01-26T02:15:34.018Z,18.60
2023-01-26T02:18:06.689Z,17.13
2023-01-26T02:20:45.830Z,18.48
2023-01-26T02:23:31.990Z,18.55
2023-01-26T02:26:11.354Z,18.08
2023-01-26T02:28:42.833Z,17.20
2023-01-26T02:31:14.227Z,18.55
2023-01-26T02:33:45.585Z,17.23
2023-01-26T02:36:22.865Z,17.55
2023-01-26T02:39:02.015Z,18.48
2023-01-26T02:41:47.086Z,17.85
2023-01-26T02:46:46.901Z,17.55
2023-01-26T02:49:29.330Z,18.75
2023-01-26T02:51:59.663Z,17.77
2023-01-26T02:54:42.053Z,15.60
2023-01-26T02:57:14.502Z,16.77
2023-01-26T02:59:44.464Z,15.77
2023-01-26T03:02:14.726Z,15.18
2023-01-26T03:04:44.931Z,16.48
2023-01-26T03:07:14.845Z,16.17
2023-01-26T03:09:44.749Z,15.25
2023-01-26T03:12:17.214Z,15.48
2023-01-26T03:15:07.074Z,14.90
2023-01-26T03:17:36.987Z,15.88
2023-01-26T03:20:22.050Z,14.35
2023-01-26T03:25:55.068Z,15.15
2023-01-26T03:28:27.791Z,15.38
2023-01-26T03:31:00.264Z,15.65
2023-01-26T03:33:30.165Z,17.33
2023-01-26T03:36:00.045Z,18.10
2023-01-26T03:38:29.905Z,17.23
2023-01-26T03:41:13.726Z,16.70
2023-01-26T03:43:58.703Z,17.48
2023-01-26T03:46:41.149Z,17.90
2023-01-26T03:49:23.722Z,18.63
2023-01-26T03:52:06.094Z,18.25
2023-01-26T03:54:48.501Z,17.50
2023-01-26T03:57:18.383Z,16.65
2023-01-26T03:59:50.840Z,18.17
2023-01-26T04:02:33.205Z,18.42
2023-01-26T04:05:15.722Z,17.20
2023-01-26T04:07:58.166Z,18.10
2023-01-26T04:10:30.536Z,18.15
2023-01-26T04:13:13.146Z,18.42
2023-01-26T04:15:58.484Z,18.17
2023-01-26T04:18:41.597Z,18.60
2023-01-26T04:21:24.049Z,18.17
2023-01-26T04:23:56.579Z,18.23
2023-01-26T04:26:27.279Z,18.55
2023-01-26T04:28:57.159Z,18.95
2023-01-26T04:31:29.621Z,18.15
2023-01-26T04:33:59.536Z,16.27
2023-01-26T04:36:29.516Z,16.85
2023-01-26T04:38:59.846Z,17.77
2023-01-26T04:41:29.763Z,17.50
2023-01-26T04:43:59.719Z,18.00
2023-01-26T04:46:33.349Z,16.77
2023-01-26T04:49:03.254Z,18.77
2023-01-26T04:51:33.105Z,18.60
2023-01-26T04:54:03.063Z,16.23
2023-01-26T04:56:35.974Z,17.60
2023-01-26T04:59:09.402Z,16.15
2023-01-26T05:01:41.827Z,16.70
2023-01-26T05:04:13.650Z,16.60
2023-01-26T05:06:44.725Z,17.15
2023-01-26T05:09:14.891Z,16.58
2023-01-26T05:11:44.869Z,18.75
2023-01-26T05:14:15.405Z,17.50
2023-01-26T05:16:47.871Z,16.95
2023-01-26T05:19:17.735Z,17.95
2023-01-26T05:21:47.593Z,16.85
2023-01-26T05:24:17.806Z,17.23
2023-01-26T05:26:47.840Z,17.13
2023-01-26T05:29:17.898Z,17.25
2023-01-26T05:31:50.493Z,17.70
2023-01-26T05:34:20.346Z,16.92
2023-01-26T05:36:50.190Z,17.48
2023-01-26T05:39:20.085Z,16.83
2023-01-26T05:41:49.933Z,17.40
2023-01-26T05:44:19.818Z,17.38
2023-01-26T05:46:52.515Z,16.92
2023-01-26T05:49:22.484Z,17.45
2023-01-26T05:51:52.370Z,16.13
2023-01-26T05:54:22.403Z,17.17
2023-01-26T05:56:53.392Z,16.90
2023-01-26T05:59:23.313Z,16.73
2023-01-26T06:01:55.785Z,16.52
2023-01-26T06:04:25.956Z,16.80
2023-01-26T06:06:56.516Z,16.42
2023-01-26T06:09:28.785Z,16.02
2023-01-26T06:12:00.147Z,15.73
2023-01-26T06:14:29.983Z,16.40
2023-01-26T06:17:02.518Z,16.05
2023-01-26T06:19:32.384Z,17.10
2023-01-26T06:22:02.291Z,16.65
2023-01-26T06:24:32.382Z,17.85
2023-01-26T06:27:02.249Z,17.38
2023-01-26T06:29:32.513Z,17.60
2023-01-26T06:32:04.937Z,17.75
2023-01-26T06:34:34.833Z,18.52
2023-01-26T06:37:04.677Z,18.35
2023-01-26T06:39:34.622Z,18.80
2023-01-26T06:42:04.495Z,19.85
2023-01-26T06:44:34.392Z,19.63
2023-01-26T06:47:08.810Z,19.05
2023-01-26T06:49:38.705Z,20.35
2023-01-26T06:52:25.895Z,20.27
2023-01-26T06:54:56.260Z,20.92
2023-01-26T06:57:26.351Z,46.85
2023-01-26T06:59:57.744Z,38.97
2023-01-26T07:02:30.248Z,26.92
2023-01-26T07:05:00.979Z,23.40
2023-01-26T07:07:40.030Z,23.60
2023-01-26T07:10:11.764Z,24.25
2023-01-26T07:12:43.710Z,23.10
2023-01-26T07:15:15.756Z,22.42
2023-01-26T07:17:48.224Z,20.20
2023-01-26T07:20:19.073Z,17.73
2023-01-26T07:22:50.164Z,20.05
2023-01-26T07:25:20.555Z,19.30
2023-01-26T07:27:50.698Z,19.23
2023-01-26T07:30:21.054Z,21.02
2023-01-26T07:32:53.619Z,20.48
2023-01-26T07:35:23.504Z,20.63
2023-01-26T07:37:53.433Z,21.50
2023-01-26T07:40:23.434Z,21.92
2023-01-26T07:42:53.418Z,21.02
2023-01-26T07:45:23.251Z,20.23
2023-01-26T07:47:57.750Z,18.23
2023-01-26T07:50:27.716Z,19.55
2023-01-26T07:52:57.564Z,19.35
2023-01-26T07:55:27.906Z,19.90
2023-01-26T07:57:57.906Z,19.85
2023-01-26T08:00:28.055Z,20.13
2023-01-26T08:03:00.540Z,18.67
2023-01-26T08:05:30.421Z,18.90
2023-01-26T08:08:01.156Z,17.50
2023-01-26T08:10:32.032Z,18.23
2023-01-26T08:13:02.856Z,17.85
2023-01-26T08:15:32.962Z,16.83
2023-01-26T08:18:06.051Z,16.77
2023-01-26T08:20:35.925Z,16.67
2023-01-26T08:23:05.799Z,17.27
2023-01-26T08:25:35.683Z,16.67
2023-01-26T08:28:05.594Z,16.83
2023-01-26T08:30:36.758Z,16.05
2023-01-26T08:33:09.772Z,16.75
2023-01-26T08:35:39.634Z,15.63
2023-01-26T08:38:09.525Z,16.17
2023-01-26T08:40:39.414Z,15.43
2023-01-26T08:43:09.289Z,15.32
2023-01-26T08:45:39.165Z,14.80
2023-01-26T08:48:12.219Z,15.75
2023-01-26T08:50:42.100Z,15.00
2023-01-26T08:53:11.966Z,13.25
2023-01-26T08:55:41.841Z,13.27
2023-01-26T08:58:11.725Z,11.95
2023-01-26T09:00:41.601Z,11.40
2023-01-26T09:03:14.192Z,11.80
2023-01-26T09:05:44.142Z,12.52
2023-01-26T09:08:14.048Z,11.68
2023-01-26T09:10:45.297Z,11.13
2023-01-26T09:13:15.213Z,11.18
2023-01-26T09:15:45.452Z,11.95
2023-01-26T09:18:18.103Z,11.98
2023-01-26T09:20:48.027Z,12.30
2023-01-26T09:23:18.293Z,11.30
2023-01-26T09:25:48.138Z,13.30
2023-01-26T09:28:18.014Z,13.68
2023-01-26T09:30:47.980Z,11.95
2023-01-26T09:33:21.605Z,13.27
2023-01-26T09:35:51.726Z,11.63
2023-01-26T09:38:21.612Z,12.77
2023-01-26T09:41:02.004Z,12.95
2023-01-26T09:43:41.686Z,12.25
2023-01-26T09:46:25.709Z,12.10
2023-01-26T09:49:08.609Z,11.95
2023-01-26T09:51:42.015Z,12.60
2023-01-26T09:54:24.646Z,13.02
2023-01-26T09:56:54.623Z,13.20
2023-01-26T09:59:35.012Z,12.65
2023-01-26T10:02:17.338Z,13.43
2023-01-26T10:04:54.702Z,14.43
2023-01-26T10:07:24.615Z,14.20
2023-01-26T10:09:56.665Z,13.80
2023-01-26T10:12:31.022Z,13.65
2023-01-26T10:15:07.859Z,13.50
2023-01-26T10:17:42.526Z,13.35
2023-01-26T10:22:58.422Z,12.48
2023-01-26T10:25:37.695Z,13.18
2023-01-26T10:28:17.032Z,12.18
2023-01-26T10:30:51.366Z,12.32
2023-01-26T10:33:26.967Z,12.77
2023-01-26T10:35:59.505Z,12.60
2023-01-26T10:38:44.006Z,11.77
2023-01-26T10:41:31.433Z,12.88
2023-01-26T10:44:04.927Z,11.45
2023-01-26T10:46:38.173Z,12.48
2023-01-26T10:49:19.926Z,12.00
2023-01-26T10:52:14.295Z,11.23
2023-01-26T10:54:44.809Z,11.30
2023-01-26T10:57:25.753Z,11.68
2023-01-26T11:00:00.219Z,12.93
2023-01-26T11:02:32.484Z,12.88
2023-01-26T11:05:22.409Z,12.60
2023-01-26T11:08:00.290Z,11.63
2023-01-26T11:10:33.502Z,12.10
2023-01-26T11:13:20.214Z,12.95
2023-01-26T11:15:53.107Z,13.90
2023-01-26T11:18:42.597Z,12.02
2023-01-26T11:21:18.060Z,12.85
2023-01-26T11:24:03.249Z,13.55
2023-01-26T11:27:17.884Z,12.27
2023-01-26T11:30:06.795Z,13.93
2023-01-26T11:32:47.403Z,13.15
2023-01-26T11:35:27.888Z,13.32
2023-01-26T11:38:09.688Z,14.57
2023-01-26T11:40:50.326Z,25.88
2023-01-26T11:43:52.183Z,15.07
2023-01-26T11:46:42.192Z,13.80
2023-01-26T11:49:28.020Z,15.65
2023-01-26T11:52:14.402Z,15.38
2023-01-26T11:55:03.008Z,16.13
2023-01-26T11:57:43.974Z,16.65
2023-01-26T12:00:29.472Z,16.27
2023-01-26T12:03:06.504Z,16.20
2023-01-26T12:05:56.567Z,16.77
2023-01-26T12:08:38.352Z,16.73
2023-01-26T12:11:28.018Z,15.82
2023-01-26T12:14:15.514Z,16.40
2023-01-26T12:17:16.843Z,15.43
2023-01-26T12:19:55.658Z,14.82
2023-01-26T12:22:34.156Z,14.35
2023-01-26T12:25:21.019Z,15.10
2023-01-26T12:27:59.125Z,15.02
2023-01-26T12:30:38.833Z,15.07
2023-01-26T12:33:08.940Z,15.63
2023-01-26T12:36:17.153Z,15.48
2023-01-26T12:39:08.136Z,15.68
2023-01-26T12:42:02.093Z,16.33
2023-01-26T12:44:40.314Z,15.98
2023-01-26T12:47:20.035Z,16.45
2023-01-26T12:49:59.018Z,16.88
2023-01-26T12:52:35.041Z,15.68
2023-01-26T12:55:15.600Z,16.08
2023-01-26T12:57:51.260Z,16.08
2023-01-26T13:00:25.668Z,15.95
2023-01-26T13:03:02.359Z,61.42
2023-01-26T13:05:34.416Z,29.50
2023-01-26T13:08:44.373Z,24.63
2023-01-26T13:11:44.466Z,15.43
2023-01-26T13:14:40.315Z,15.50
2023-01-26T13:17:44.386Z,15.25
2023-01-26T13:20:49.549Z,14.77
2023-01-26T13:23:52.985Z,16.20
2023-01-26T13:26:53.180Z,16.48
2023-01-26T13:29:36.331Z,15.00
2023-01-26T13:32:58.120Z,14.77
2023-01-26T13:35:29.469Z,16.02
2023-01-26T13:38:17.229Z,15.65
2023-01-26T13:40:50.496Z,15.55
2023-01-26T13:43:30.014Z,16.52
2023-01-26T13:46:13.048Z,15.38
2023-01-26T13:48:53.067Z,13.98
2023-01-26T13:51:26.383Z,14.05
2023-01-26T13:54:06.456Z,13.85
2023-01-26T13:56:40.050Z,14.05
2023-01-26T13:59:15.679Z,12.80
2023-01-26T14:01:47.808Z,13.73
2023-01-26T14:04:21.495Z,12.55
2023-01-26T14:06:56.443Z,14.23
2023-01-26T14:12:03.949Z,13.35
2023-01-26T14:14:38.305Z,13.40
2023-01-26T14:17:27.373Z,12.48
2023-01-26T14:19:58.468Z,14.25
2023-01-26T14:22:28.505Z,12.88
2023-01-26T14:25:00.975Z,12.63
2023-01-26T14:27:39.172Z,13.95
2023-01-26T14:30:28.924Z,13.88
2023-01-26T14:33:06.478Z,11.93
2023-01-26T14:35:37.211Z,11.60
2023-01-26T14:38:19.945Z,12.02
2023-01-26T14:40:54.838Z,11.70
2023-01-26T14:43:27.151Z,11.95
2023-01-26T14:46:02.490Z,11.75
2023-01-26T14:48:37.139Z,12.10
2023-01-26T14:51:09.580Z,11.95
2023-01-26T14:53:39.920Z,12.77
2023-01-26T14:56:22.010Z,11.68
2023-01-26T14:58:55.809Z,14.38
2023-01-26T15:01:29.147Z,14.53
2023-01-26T15:04:06.124Z,13.05
2023-01-26T15:06:36.590Z,13.18
2023-01-26T15:09:09.450Z,13.55
2023-01-26T15:11:55.874Z,14.48
2023-01-26T15:14:37.317Z,14.43
2023-01-26T15:17:08.228Z,13.85
2023-01-26T15:19:44.870Z,14.07
2023-01-26T15:22:24.360Z,16.83
2023-01-26T15:25:09.053Z,14.32
2023-01-26T15:27:41.517Z,18.00
2023-01-26T15:30:20.541Z,14.70
2023-01-26T15:32:50.487Z,15.55
2023-01-26T15:35:26.992Z,15.52
2023-01-26T15:38:05.016Z,14.00
2023-01-26T15:40:35.511Z,14.23
2023-01-26T15:43:15.028Z,15.40
2023-01-26T15:45:51.250Z,16.10
2023-01-26T15:48:21.237Z,15.27
2023-01-26T15:50:51.347Z,17.42
2023-01-26T15:53:24.414Z,15.13
2023-01-26T15:55:56.360Z,13.95
2023-01-26T15:58:29.260Z,14.05
2023-01-26T16:00:59.442Z,13.95
2023-01-26T16:03:29.380Z,14.00
2023-01-26T16:05:59.397Z,14.50
2023-01-26T16:08:29.394Z,13.60
2023-01-26T16:11:00.690Z,14.10
2023-01-26T16:13:34.127Z,13.60
2023-01-26T16:16:04.139Z,14.32
2023-01-26T16:18:34.382Z,14.30
2023-01-26T16:21:04.316Z,15.02
2023-01-26T16:23:34.288Z,13.05
2023-01-26T16:26:04.117Z,14.23
2023-01-26T16:28:36.590Z,13.80
2023-01-26T16:31:15.787Z,14.27
2023-01-26T16:33:45.784Z,14.48
2023-01-26T16:36:17.640Z,13.75
2023-01-26T16:38:48.885Z,14.80
2023-01-26T16:41:27.168Z,14.73
2023-01-26T16:44:02.017Z,14.50
2023-01-26T16:46:33.445Z,14.10
2023-01-26T16:49:04.142Z,17.92
2023-01-26T16:51:40.187Z,20.45
2023-01-26T16:54:10.029Z,16.13
2023-01-26T16:56:40.162Z,13.90
2023-01-26T16:59:12.574Z,15.70
2023-01-26T17:01:42.467Z,14.80
2023-01-26T17:04:13.657Z,13.35
2023-01-26T17:06:43.510Z,12.07
2023-01-26T17:09:14.242Z,12.90
2023-01-26T17:11:44.142Z,12.57
2023-01-26T17:14:16.736Z,13.35
2023-01-26T17:16:46.770Z,14.63
2023-01-26T17:19:16.685Z,12.45
2023-01-26T17:21:46.562Z,13.20
2023-01-26T17:24:16.468Z,13.85
2023-01-26T17:26:46.392Z,13.60
2023-01-26T17:29:18.833Z,13.85
2023-01-26T17:31:48.738Z,12.35
2023-01-26T17:34:18.807Z,13.02
2023-01-26T17:36:48.704Z,12.57
2023-01-26T17:39:18.899Z,13.50
2023-01-26T17:41:48.872Z,13.43
2023-01-26T17:44:21.381Z,13.88
2023-01-26T17:46:51.226Z,12.30
2023-01-26T17:49:21.538Z,11.90
2023-01-26T17:51:51.524Z,14.02
2023-01-26T17:54:24.985Z,13.32
2023-01-26T17:56:55.547Z,14.15
2023-01-26T17:59:28.165Z,15.23
2023-01-26T18:01:58.173Z,15.93
2023-01-26T18:04:29.850Z,14.95
2023-01-26T18:07:01.879Z,15.60
2023-01-26T18:09:31.762Z,15.63
2023-01-26T18:12:01.616Z,16.27
2023-01-26T18:14:34.089Z,17.50
2023-01-26T18:17:04.025Z,16.92
2023-01-26T18:19:33.901Z,16.38
2023-01-26T18:22:03.770Z,15.88
2023-01-26T18:24:34.067Z,15.45
2023-01-26T18:27:03.925Z,15.52
2023-01-26T18:29:36.449Z,16.10
2023-01-26T18:32:06.612Z,15.48
2023-01-26T18:34:36.469Z,15.73
2023-01-26T18:37:06.710Z,15.02
2023-01-26T18:39:36.718Z,15.60
2023-01-26T18:42:06.822Z,15.02
2023-01-26T18:44:39.362Z,15.27
2023-01-26T18:47:09.429Z,15.68
2023-01-26T18:49:39.318Z,16.05
2023-01-26T18:52:09.344Z,15.23
2023-01-26T18:54:39.250Z,14.68
2023-01-26T18:57:09.133Z,16.92
2023-01-26T18:59:41.585Z,15.65
2023-01-26T19:02:13.929Z,17.30
2023-01-26T19:04:44.429Z,15.40
2023-01-26T19:07:15.374Z,15.88
2023-01-26T19:09:45.259Z,16.25
2023-01-26T19:12:15.824Z,17.95
2023-01-26T19:14:48.272Z,18.92
2023-01-26T19:17:18.288Z,18.25
2023-01-26T19:19:48.158Z,18.27
2023-01-26T19:22:18.014Z,18.65
2023-01-26T19:24:48.237Z,17.35
2023-01-26T19:27:18.093Z,16.90
2023-01-26T19:29:51.684Z,16.33
2023-01-26T19:32:21.606Z,16.05
2023-01-26T19:34:51.469Z,15.52
2023-01-26T19:37:21.969Z,15.82
2023-01-26T19:39:51.811Z,16.67
2023-01-26T19:42:21.680Z,14.70
2023-01-26T19:44:54.151Z,15.68
2023-01-26T19:47:23.987Z,15.07
2023-01-26T19:49:53.859Z,14.82
2023-01-26T19:52:23.697Z,15.23
2023-01-26T19:54:53.572Z,16.42
2023-01-26T19:57:23.828Z,16.40
2023-01-26T19:59:56.308Z,15.75
2023-01-26T20:02:26.185Z,16.90
2023-01-26T20:04:56.076Z,16.35
2023-01-26T20:07:25.904Z,16.45
2023-01-26T20:09:55.806Z,16.33
2023-01-26T20:12:25.725Z,18.67
2023-01-26T20:15:00.409Z,17.25
2023-01-26T20:17:30.709Z,16.92
2023-01-26T20:20:00.601Z,14.98
2023-01-26T20:22:34.102Z,15.40
2023-01-26T20:25:04.203Z,15.60
2023-01-26T20:27:35.082Z,14.45
2023-01-26T20:30:09.789Z,15.90
2023-01-26T20:32:40.180Z,15.45
2023-01-26T20:35:12.258Z,14.93
2023-01-26T20:37:42.174Z,16.65
2023-01-26T20:40:14.037Z,14.65
2023-01-26T20:42:44.181Z,16.17
2023-01-26T20:45:16.941Z,15.63
2023-01-26T20:47:46.849Z,15.82
2023-01-26T20:50:16.893Z,15.73
2023-01-26T20:52:46.951Z,14.68
2023-01-26T20:55:16.959Z,16.90
2023-01-26T20:57:47.079Z,15.27
2023-01-26T21:00:21.211Z,15.70
2023-01-26T21:02:51.088Z,14.60
2023-01-26T21:05:21.254Z,15.57
2023-01-26T21:07:51.192Z,16.30
2023-01-26T21:10:21.143Z,14.43
2023-01-26T21:12:51.308Z,15.52
2023-01-26T21:15:23.784Z,16.02
2023-01-26T21:17:53.658Z,16.55
2023-01-26T21:20:23.515Z,14.65
2023-01-26T21:22:55.209Z,16.08
2023-01-26T21:25:25.035Z,16.48
2023-01-26T21:27:55.504Z,16.70
2023-01-26T21:30:28.457Z,17.48
2023-01-26T21:32:58.411Z,15.93
2023-01-26T21:35:28.273Z,16.30
2023-01-26T21:37:59.061Z,17.10
2023-01-26T21:40:28.993Z,16.27
2023-01-26T21:42:58.848Z,16.45
2023-01-26T21:45:43.832Z,16.15
2023-01-26T21:48:26.222Z,16.30
2023-01-26T21:51:10.558Z,16.80
2023-01-26T21:53:40.423Z,16.95
2023-01-26T21:56:11.261Z,15.63
2023-01-26T21:58:53.805Z,15.27
2023-01-26T22:01:27.777Z,16.10
2023-01-26T22:03:58.493Z,16.20
2023-01-26T22:06:29.314Z,15.07
2023-01-26T22:08:59.937Z,15.82
2023-01-26T22:11:30.796Z,16.02
2023-01-26T22:14:00.654Z,17.65
2023-01-26T22:16:33.162Z,15.68
2023-01-26T22:19:03.700Z,16.25
2023-01-26T22:21:34.795Z,15.45
2023-01-26T22:24:04.767Z,17.63
2023-01-26T22:26:34.740Z,16.35
2023-01-26T22:29:04.675Z,15.85
2023-01-26T22:31:37.394Z,16.80
2023-01-26T22:34:07.332Z,16.17
2023-01-26T22:36:37.233Z,16.23
2023-01-26T22:39:07.943Z,15.88
2023-01-26T22:41:38.370Z,15.85
2023-01-26T22:44:08.727Z,16.15
2023-01-26T22:46:41.215Z,15.95
2023-01-26T22:49:13.002Z,16.05
2023-01-26T22:51:42.890Z,16.23
2023-01-26T22:54:12.785Z,15.25
2023-01-26T22:56:42.648Z,15.77
2023-01-26T22:59:12.503Z,15.98
2023-01-26T23:01:45.110Z,16.33
2023-01-26T23:04:15.100Z,16.27
2023-01-26T23:06:45.061Z,16.08
2023-01-26T23:09:14.924Z,15.18
2023-01-26T23:11:44.803Z,15.38
2023-01-26T23:14:14.682Z,14.85
2023-01-26T23:16:47.173Z,14.77
2023-01-26T23:19:17.073Z,14.40
2023-01-26T23:21:46.933Z,15.70
2023-01-26T23:24:16.882Z,14.85
2023-01-26T23:26:46.812Z,14.43
2023-01-26T23:29:16.657Z,13.40
2023-01-26T23:31:49.321Z,15.18
2023-01-26T23:34:19.274Z,14.15
2023-01-26T23:36:49.144Z,15.38
2023-01-26T23:39:19.397Z,15.57
2023-01-26T23:41:49.309Z,16.75
2023-01-26T23:44:19.193Z,15.48
2023-01-26T23:46:51.850Z,15.25
2023-01-26T23:49:21.760Z,15.52
2023-01-26T23:51:51.945Z,16.10
2023-01-26T23:54:21.831Z,15.35
2023-01-26T23:56:51.696Z,13.82
2023-01-26T23:59:21.576Z,15.35
